Terminal Aerodrome Forecast
Issued by NWS

Home | Current Version | Previous Version | Text Only | Print | Product List | Glossary On
Versions: 1 2 3 4 5 6 7 8 9 10 11 12 13 14 15
245
FTUS41 KPBZ 112330
TAFMGW
TAF
KMGW 112330Z 1200/1224 00000KT P6SM BKN060
     FM121000 22010G22KT P6SM VCSH OVC035
     FM121200 23010G26KT 6SM -SN OVC025
     FM121500 25011G31KT 4SM -SHSN OVC015=

USA.gov is the U.S. government's official web portal to all federal, state and local government web resources and services.